Time;durP1;ratioP1;P1;durP2;ratioP2;P2;SDS_P1;SDS_P2;PMS_P1;PMS_P2;Temp;Humidity;BMP_temperature;BMP_pressure;BME280_temperature;BME280_humidity;BME280_pressure;Samples;Min_cycle;Max_cycle;Signal;HPM_P1;HPM_P2
2021/11/15 00:00:45;;;;;;;4.35;3.20;;;22.30;43.20;;;;;;5063698;28;20925;-72
2021/11/15 00:03:13;;;;;;;4.82;3.58;;;22.30;43.20;;;;;;5065052;28;20457;-71
2021/11/15 00:05:39;;;;;;;5.03;3.55;;;22.30;43.20;;;;;;5065237;28;20470;-70
2021/11/15 00:08:05;;;;;;;4.43;3.30;;;22.30;43.30;;;;;;5064990;28;20596;-72
2021/11/15 00:10:32;;;;;;;4.65;3.33;;;22.30;43.50;;;;;;5064912;28;20405;-70
2021/11/15 00:12:57;;;;;;;4.40;3.03;;;22.30;43.50;;;;;;5065301;28;20380;-73
2021/11/15 00:15:24;;;;;;;4.63;3.15;;;22.30;43.20;;;;;;5064760;28;20481;-73
2021/11/15 00:17:50;;;;;;;4.43;3.28;;;22.20;43.00;;;;;;5064996;28;20873;-72
2021/11/15 00:20:17;;;;;;;4.72;3.50;;;22.20;43.10;;;;;;5064335;28;20891;-74
2021/11/15 00:22:43;;;;;;;5.13;3.60;;;22.20;43.30;;;;;;5064611;28;20469;-72
2021/11/15 00:25:11;;;;;;;4.25;3.10;;;22.30;43.40;;;;;;5063489;28;20423;-70
2021/11/15 00:27:37;;;;;;;4.57;3.30;;;22.20;43.50;;;;;;5064483;28;20427;-73
2021/11/15 00:30:06;;;;;;;4.03;3.20;;;22.20;43.10;;;;;;5063876;28;20411;-71
2021/11/15 00:32:32;;;;;;;5.50;3.65;;;22.20;43.10;;;;;;5063684;28;20479;-71
2021/11/15 00:34:57;;;;;;;4.63;3.33;;;22.20;43.00;;;;;;5064475;28;20417;-73
2021/11/15 00:37:23;;;;;;;3.95;3.08;;;22.20;43.20;;;;;;5064579;28;20387;-72
2021/11/15 00:39:49;;;;;;;4.28;3.10;;;22.20;43.30;;;;;;5063315;28;20427;-73
2021/11/15 00:42:16;;;;;;;4.65;3.17;;;22.20;43.50;;;;;;5062526;28;20395;-73
2021/11/15 00:44:42;;;;;;;3.80;2.80;;;22.20;43.10;;;;;;5063004;28;20442;-73
2021/11/15 00:47:08;;;;;;;4.68;3.22;;;22.20;43.00;;;;;;5064253;28;20380;-72
2021/11/15 00:49:35;;;;;;;4.23;2.93;;;22.10;43.00;;;;;;5064375;28;20384;-73
2021/11/15 00:52:01;;;;;;;4.40;3.00;;;22.10;43.00;;;;;;5062983;28;20468;-74
2021/11/15 00:54:27;;;;;;;3.83;2.88;;;22.10;43.20;;;;;;5062674;28;20411;-73
2021/11/15 00:56:52;;;;;;;4.05;3.10;;;22.20;43.40;;;;;;5064285;28;20388;-71
2021/11/15 00:59:18;;;;;;;4.63;2.90;;;22.20;43.20;;;;;;5064238;28;20382;-72
2021/11/15 01:01:44;;;;;;;4.27;3.03;;;22.10;42.80;;;;;;5064339;28;20397;-72
2021/11/15 01:04:09;;;;;;;4.40;3.30;;;22.10;42.90;;;;;;5063946;28;20395;-71
2021/11/15 01:06:35;;;;;;;4.00;2.90;;;22.10;43.10;;;;;;5062372;28;20438;-71
2021/11/15 01:09:01;;;;;;;3.88;3.05;;;22.10;43.00;;;;;;5061981;28;20408;-72
2021/11/15 01:11:27;;;;;;;4.50;3.42;;;22.10;43.30;;;;;;5062396;28;20919;-70
2021/11/15 01:13:52;;;;;;;4.90;3.20;;;22.10;43.20;;;;;;5063953;28;20407;-73
2021/11/15 01:16:19;;;;;;;3.95;2.78;;;22.10;42.90;;;;;;5063492;28;20618;-72
2021/11/15 01:18:45;;;;;;;3.72;2.80;;;22.00;42.80;;;;;;5063595;28;20437;-72
2021/11/15 01:21:12;;;;;;;3.90;3.15;;;22.00;42.80;;;;;;5062433;28;20396;-72
2021/11/15 01:23:39;;;;;;;4.07;2.92;;;22.00;43.00;;;;;;5063552;28;20961;-74
2021/11/15 01:26:06;;;;;;;4.65;2.88;;;22.00;43.20;;;;;;5063657;28;20487;-72
2021/11/15 01:28:33;;;;;;;4.15;3.08;;;22.00;43.20;;;;;;5063368;28;20395;-72
2021/11/15 01:30:59;;;;;;;3.75;2.75;;;22.00;42.80;;;;;;5063413;28;20427;-72
2021/11/15 01:33:26;;;;;;;3.72;2.72;;;22.00;42.90;;;;;;5063745;28;20419;-73
2021/11/15 01:35:51;;;;;;;3.45;2.83;;;21.90;42.70;;;;;;5062005;28;20412;-72
2021/11/15 01:38:17;;;;;;;3.35;2.42;;;21.90;43.00;;;;;;5063512;28;20445;-72
2021/11/15 01:40:43;;;;;;;3.10;2.67;;;22.00;43.10;;;;;;5062093;28;20391;-72
2021/11/15 01:43:09;;;;;;;3.33;2.40;;;22.00;43.10;;;;;;5062188;28;20380;-73
2021/11/15 01:45:37;;;;;;;3.28;2.47;;;22.00;42.90;;;;;;5061754;28;20486;-73
2021/11/15 01:48:08;;;;;;;4.00;2.42;;;22.00;42.80;;;;;;5062314;28;20380;-71
2021/11/15 01:50:36;;;;;;;4.07;2.70;;;21.90;42.80;;;;;;5061961;28;20792;-74
2021/11/15 01:53:04;;;;;;;3.43;2.40;;;21.90;42.90;;;;;;5078697;28;20403;-73
2021/11/15 01:55:30;;;;;;;4.07;2.45;;;21.90;43.00;;;;;;5061463;28;20542;-70
2021/11/15 01:57:57;;;;;;;3.63;2.78;;;21.90;43.10;;;;;;5063040;28;20865;-73
2021/11/15 02:00:30;;;;;;;3.08;2.40;;;21.90;42.80;;;;;;5060990;28;20431;-73
2021/11/15 02:02:57;;;;;;;4.00;2.70;;;21.90;42.60;;;;;;5062833;28;20396;-72
2021/11/15 02:05:22;;;;;;;3.40;2.80;;;21.90;42.60;;;;;;5062675;28;20410;-74
2021/11/15 02:07:48;;;;;;;4.47;2.67;;;21.90;42.80;;;;;;5061789;28;20407;-72
2021/11/15 02:10:14;;;;;;;3.50;2.50;;;21.90;42.80;;;;;;5062296;28;20433;-71
2021/11/15 02:12:41;;;;;;;3.00;2.40;;;21.90;43.00;;;;;;5062613;28;20410;-72
2021/11/15 02:15:10;;;;;;;3.93;2.77;;;21.90;42.80;;;;;;5062987;28;20455;-72
2021/11/15 02:17:38;;;;;;;3.47;2.42;;;21.90;42.70;;;;;;5078193;28;20415;-73
2021/11/15 02:20:08;;;;;;;3.55;2.50;;;21.80;42.60;;;;;;5061395;28;20418;-74
2021/11/15 02:22:34;;;;;;;3.22;2.40;;;21.80;42.80;;;;;;5062871;28;20826;-74
2021/11/15 02:25:06;;;;;;;3.10;2.35;;;21.80;42.80;;;;;;5061836;28;20869;-71
2021/11/15 02:27:33;;;;;;;3.88;2.30;;;21.90;43.00;;;;;;5062585;28;20410;-72
2021/11/15 02:29:59;;;;;;;3.17;2.40;;;21.90;42.80;;;;;;5062567;28;20461;-73
2021/11/15 02:32:26;;;;;;;2.90;2.23;;;21.80;42.60;;;;;;5062929;28;20948;-74
2021/11/15 02:34:52;;;;;;;3.15;2.40;;;21.80;42.60;;;;;;5061445;28;20407;-71
2021/11/15 02:37:18;;;;;;;3.23;2.37;;;21.80;42.70;;;;;;5062958;28;20919;-74
2021/11/15 02:39:43;;;;;;;3.28;2.50;;;21.80;42.80;;;;;;5062606;28;20753;-70
2021/11/15 02:42:11;;;;;;;3.13;2.40;;;21.80;43.00;;;;;;5063018;28;20403;-73
2021/11/15 02:44:38;;;;;;;3.13;2.50;;;21.80;42.90;;;;;;5062632;28;20433;-72
2021/11/15 02:47:03;;;;;;;3.25;2.50;;;21.80;42.60;;;;;;5062753;28;20383;-73
2021/11/15 02:49:30;;;;;;;3.10;2.40;;;21.80;42.60;;;;;;5062687;28;20398;-73
2021/11/15 02:51:56;;;;;;;3.05;2.22;;;21.70;42.60;;;;;;5062722;28;20449;-73
2021/11/15 02:54:24;;;;;;;3.92;2.67;;;21.70;42.70;;;;;;5062749;28;20449;-73
2021/11/15 02:56:50;;;;;;;3.05;2.30;;;21.80;43.00;;;;;;5062513;28;20404;-73
2021/11/15 02:59:16;;;;;;;2.70;2.08;;;21.80;42.90;;;;;;5062641;28;20757;-73
2021/11/15 03:01:46;;;;;;;3.17;2.13;;;21.90;43.30;;;;;;5062724;28;20395;-72
2021/11/15 03:04:15;;;;;;;3.28;2.00;;;21.90;42.60;;;;;;5063088;28;20498;-73
2021/11/15 03:06:41;;;;;;;2.58;2.10;;;22.00;42.60;;;;;;5062444;28;20924;-74
2021/11/15 03:09:08;;;;;;;2.78;2.05;;;22.00;42.50;;;;;;5062558;28;20380;-73
2021/11/15 03:11:34;;;;;;;3.22;2.20;;;22.10;42.50;;;;;;5062847;28;20450;-73
2021/11/15 03:14:00;;;;;;;2.85;2.00;;;22.10;42.50;;;;;;5062016;28;20387;-71
2021/11/15 03:16:25;;;;;;;3.00;1.98;;;22.10;42.50;;;;;;5061000;28;20416;-70
2021/11/15 03:18:51;;;;;;;2.93;2.03;;;22.10;42.50;;;;;;5062486;28;20402;-74
2021/11/15 03:21:20;;;;;;;2.80;2.00;;;22.10;42.40;;;;;;5060900;28;20396;-73
2021/11/15 03:23:49;;;;;;;2.20;1.85;;;22.10;42.30;;;;;;5062355;28;20496;-73
2021/11/15 03:26:15;;;;;;;2.40;1.90;;;22.20;42.30;;;;;;5062400;28;20420;-73
2021/11/15 03:28:43;;;;;;;2.85;2.00;;;22.20;42.30;;;;;;5062377;28;20416;-73
2021/11/15 03:31:21;;;;;;;3.20;1.90;;;22.20;42.30;;;;;;5062211;28;20387;-74
2021/11/15 03:33:49;;;;;;;2.70;1.90;;;22.20;42.30;;;;;;5065216;28;20471;-70
2021/11/15 03:36:15;;;;;;;2.50;2.00;;;22.20;42.20;;;;;;5064542;28;20932;-74
2021/11/15 03:38:41;;;;;;;2.25;1.80;;;22.20;42.20;;;;;;5065869;28;20379;-73
2021/11/15 03:41:08;;;;;;;2.30;1.80;;;22.20;42.20;;;;;;5065665;28;20440;-73
2021/11/15 03:43:34;;;;;;;2.63;1.90;;;22.20;42.10;;;;;;5065920;28;20387;-73
2021/11/15 03:46:00;;;;;;;2.80;1.92;;;22.20;42.10;;;;;;5064097;28;20399;-74
2021/11/15 03:48:26;;;;;;;2.92;2.13;;;22.20;42.10;;;;;;5065881;28;20396;-73
2021/11/15 03:50:55;;;;;;;2.27;1.80;;;22.30;42.10;;;;;;5065531;28;20416;-73
2021/11/15 03:53:25;;;;;;;2.15;1.80;;;22.20;42.00;;;;;;5064080;28;20482;-74
2021/11/15 03:55:53;;;;;;;2.50;1.77;;;22.30;42.60;;;;;;5065388;28;20411;-71
2021/11/15 03:58:19;;;;;;;2.22;1.80;;;22.30;42.00;;;;;;5063948;28;20384;-72
2021/11/15 04:00:45;;;;;;;2.70;1.80;;;22.30;42.00;;;;;;5065468;28;21207;-74
2021/11/15 04:03:18;;;;;;;2.70;1.60;;;22.30;41.90;;;;;;5063627;28;20952;-74
2021/11/15 04:05:55;;;;;;;2.58;1.83;;;22.30;42.00;;;;;;5064116;28;20391;-74
2021/11/15 04:08:22;;;;;;;3.50;1.80;;;22.30;41.40;;;;;;5065027;28;20474;-71
2021/11/15 04:10:47;;;;;;;3.65;2.00;;;22.30;41.80;;;;;;5064010;28;20387;-74
2021/11/15 04:13:21;;;;;;;2.85;2.00;;;22.30;41.90;;;;;;5063848;28;20391;-73
2021/11/15 04:15:50;;;;;;;4.37;2.70;;;22.40;42.10;;;;;;5081435;28;20920;-72
2021/11/15 04:18:19;;;;;;;5.93;2.47;;;22.40;42.10;;;;;;5063700;28;20396;-75
2021/11/15 04:20:46;;;;;;;6.68;2.63;;;22.50;43.40;;;;;;5065456;28;20482;-75
2021/11/15 04:23:12;;;;;;;7.38;2.75;;;22.50;43.50;;;;;;5063394;28;20400;-75
2021/11/15 04:25:38;;;;;;;4.60;2.30;;;22.50;43.60;;;;;;5063998;28;20977;-73
2021/11/15 04:28:04;;;;;;;5.93;2.42;;;22.50;43.50;;;;;;5064186;28;20766;-76
2021/11/15 04:30:33;;;;;;;4.40;2.40;;;22.60;43.40;;;;;;5065761;28;20804;-78
2021/11/15 04:33:01;;;;;;;5.55;2.30;;;22.60;43.20;;;;;;5065627;28;20418;-78
2021/11/15 04:35:26;;;;;;;5.75;2.47;;;22.60;42.80;;;;;;5066056;28;20921;-79
2021/11/15 04:37:52;;;;;;;6.75;2.20;;;22.70;43.60;;;;;;5065713;28;20388;-80
2021/11/15 04:40:18;;;;;;;9.13;2.55;;;22.70;43.40;;;;;;5066906;28;20396;-78
2021/11/15 04:42:43;;;;;;;7.60;2.27;;;22.70;43.20;;;;;;5082579;28;20509;-78
2021/11/15 04:45:10;;;;;;;5.57;2.10;;;22.80;42.80;;;;;;5064526;28;20507;-75
2021/11/15 04:47:36;;;;;;;7.60;2.05;;;22.70;42.30;;;;;;5065146;28;20461;-78
2021/11/15 04:50:03;;;;;;;6.60;2.27;;;22.70;42.50;;;;;;5064899;28;21048;-77
2021/11/15 04:52:29;;;;;;;6.43;2.08;;;22.70;42.20;;;;;;5065165;28;20388;-78
2021/11/15 04:54:55;;;;;;;3.87;1.97;;;22.70;41.80;;;;;;5066041;28;20792;-75
2021/11/15 04:57:20;;;;;;;5.65;2.05;;;22.70;42.10;;;;;;5065114;28;20434;-74
2021/11/15 04:59:47;;;;;;;4.90;2.10;;;22.70;42.00;;;;;;5064805;28;20396;-78
2021/11/15 05:02:14;;;;;;;6.32;2.38;;;22.70;42.00;;;;;;5080729;28;20387;-74
2021/11/15 05:04:39;;;;;;;4.53;2.10;;;22.70;41.70;;;;;;5065391;28;20416;-78
2021/11/15 05:07:05;;;;;;;5.13;2.30;;;22.70;41.70;;;;;;5064896;28;20476;-77
2021/11/15 05:09:31;;;;;;;3.72;2.10;;;22.70;41.80;;;;;;5066070;28;20386;-77
2021/11/15 05:11:56;;;;;;;4.05;2.00;;;22.70;41.70;;;;;;5065275;28;20380;-73
2021/11/15 05:14:22;;;;;;;3.78;1.90;;;22.70;41.60;;;;;;5064944;28;20392;-74
2021/11/15 05:16:48;;;;;;;3.20;1.87;;;22.70;41.60;;;;;;5065620;28;20888;-78
2021/11/15 05:19:14;;;;;;;4.60;1.95;;;22.70;41.50;;;;;;5065643;28;20383;-76
2021/11/15 05:21:40;;;;;;;4.03;1.95;;;22.70;41.40;;;;;;5064205;28;20428;-77
2021/11/15 05:24:06;;;;;;;4.10;1.83;;;22.80;41.30;;;;;;5065056;28;20465;-77
2021/11/15 05:26:32;;;;;;;3.40;1.90;;;22.70;41.20;;;;;;5063464;28;20402;-77
2021/11/15 05:28:57;;;;;;;4.72;1.95;;;22.80;41.30;;;;;;5064386;28;20394;-77
2021/11/15 05:31:24;;;;;;;5.30;2.10;;;22.80;41.30;;;;;;5060495;28;20400;-72
2021/11/15 05:33:50;;;;;;;7.68;2.13;;;22.80;41.80;;;;;;5063154;28;20433;-76
2021/11/15 05:36:16;;;;;;;7.38;2.22;;;22.80;41.50;;;;;;5063987;28;20423;-74
2021/11/15 05:38:42;;;;;;;9.25;2.78;;;22.80;41.90;;;;;;5064009;28;20415;-74
2021/11/15 05:41:07;;;;;;;6.70;3.60;;;22.70;41.10;;;;;;5062894;28;20435;-77
2021/11/15 05:43:33;;;;;;;6.60;2.97;;;22.70;42.00;;;;;;5063137;28;20498;-77
2021/11/15 05:45:59;;;;;;;5.70;2.67;;;22.60;42.80;;;;;;5064240;28;20739;-77
2021/11/15 05:48:25;;;;;;;5.20;2.50;;;22.60;42.70;;;;;;5065248;28;20384;-78
2021/11/15 05:50:51;;;;;;;5.88;2.35;;;22.60;42.80;;;;;;5080072;28;20400;-78
2021/11/15 05:53:17;;;;;;;5.65;3.08;;;22.70;43.10;;;;;;5064024;28;20383;-73
2021/11/15 05:55:44;;;;;;;6.65;3.20;;;22.80;42.20;;;;;;5059916;28;20419;-76
2021/11/15 05:58:10;;;;;;;5.90;2.50;;;22.70;42.60;;;;;;5063372;28;20395;-78
2021/11/15 06:00:38;;;;;;;6.78;2.45;;;22.60;43.00;;;;;;5062414;28;20391;-76
2021/11/15 06:03:04;;;;;;;5.47;2.60;;;22.60;42.90;;;;;;5063974;28;20419;-77
2021/11/15 06:05:30;;;;;;;6.50;2.55;;;22.60;43.00;;;;;;5062537;28;20420;-77
2021/11/15 06:07:56;;;;;;;6.90;2.77;;;22.70;43.00;;;;;;5063407;28;20391;-78
2021/11/15 06:10:22;;;;;;;4.07;2.55;;;22.60;42.50;;;;;;5062428;28;20391;-77
2021/11/15 06:12:49;;;;;;;5.88;2.65;;;22.50;42.10;;;;;;5058724;28;20452;-76
2021/11/15 06:15:17;;;;;;;5.45;2.72;;;22.40;42.40;;;;;;5061973;28;20438;-77
2021/11/15 06:17:43;;;;;;;5.18;2.65;;;22.40;42.60;;;;;;5062513;28;20482;-78
2021/11/15 06:20:10;;;;;;;8.45;2.65;;;22.50;43.00;;;;;;5063331;28;20423;-77
2021/11/15 06:22:36;;;;;;;7.22;2.50;;;22.50;43.20;;;;;;5062858;28;20477;-76
2021/11/15 06:25:04;;;;;;;6.03;3.67;;;22.50;42.70;;;;;;5061482;28;20402;-73
2021/11/15 06:27:30;;;;;;;8.82;4.00;;;22.50;41.80;;;;;;5063314;28;20379;-74
2021/11/15 06:29:55;;;;;;;6.40;4.10;;;22.40;42.00;;;;;;5063144;28;20669;-76
2021/11/15 06:32:21;;;;;;;7.20;3.10;;;22.40;42.20;;;;;;5063240;28;20391;-75
2021/11/15 06:34:47;;;;;;;6.10;2.90;;;22.40;42.50;;;;;;5063263;28;20403;-78
2021/11/15 06:37:13;;;;;;;5.70;2.87;;;22.40;42.50;;;;;;5062861;28;20968;-73
2021/11/15 06:39:39;;;;;;;5.22;3.15;;;22.40;42.20;;;;;;5063190;28;20486;-77
2021/11/15 06:42:05;;;;;;;7.25;5.32;;;22.40;42.10;;;;;;5061977;28;21080;-70
2021/11/15 06:44:31;;;;;;;9.82;5.20;;;22.30;42.00;;;;;;5063420;28;20414;-81
2021/11/15 06:46:58;;;;;;;7.93;5.22;;;22.20;41.90;;;;;;5063985;28;20383;-72
2021/11/15 06:49:25;;;;;;;8.63;4.95;;;22.10;41.70;;;;;;5062154;28;20390;-70
2021/11/15 06:51:51;;;;;;;8.13;5.10;;;22.20;41.90;;;;;;5062307;28;20383;-70
2021/11/15 06:54:17;;;;;;;5.60;4.45;;;22.20;42.20;;;;;;5061817;28;20392;-70
2021/11/15 06:56:43;;;;;;;6.70;4.60;;;22.10;41.70;;;;;;5062274;28;20514;-72
2021/11/15 06:59:08;;;;;;;6.30;3.80;;;22.10;41.70;;;;;;5062095;28;20380;-73
2021/11/15 07:01:36;;;;;;;6.85;4.40;;;22.00;41.70;;;;;;5061202;28;20418;-71
2021/11/15 07:04:04;;;;;;;5.20;4.00;;;22.00;41.80;;;;;;5062371;28;20487;-70
2021/11/15 07:06:29;;;;;;;6.43;4.50;;;22.00;42.00;;;;;;5062119;28;20387;-72
2021/11/15 07:08:55;;;;;;;6.43;4.33;;;22.10;41.90;;;;;;5065309;28;20391;-70
2021/11/15 07:11:21;;;;;;;8.38;5.75;;;22.10;41.60;;;;;;5065741;28;21204;-71
2021/11/15 07:13:47;;;;;;;8.07;4.75;;;22.10;41.60;;;;;;5065563;28;20399;-71
2021/11/15 07:16:13;;;;;;;7.60;4.82;;;22.10;41.90;;;;;;5065609;28;20416;-70
2021/11/15 07:18:39;;;;;;;8.32;4.70;;;22.10;42.00;;;;;;5065813;28;20384;-70
2021/11/15 07:21:06;;;;;;;7.10;4.65;;;22.10;42.10;;;;;;5064082;28;20402;-70
2021/11/15 07:23:31;;;;;;;7.63;4.57;;;22.10;41.80;;;;;;5064901;28;20410;-74
2021/11/15 07:25:57;;;;;;;6.88;4.65;;;22.10;41.90;;;;;;5064236;28;20895;-70
2021/11/15 07:28:23;;;;;;;5.57;4.32;;;22.00;41.40;;;;;;5065381;28;20384;-70
2021/11/15 07:30:54;;;;;;;5.97;4.43;;;22.00;41.70;;;;;;5064884;28;20419;-71
2021/11/15 07:33:24;;;;;;;6.97;4.40;;;21.90;41.90;;;;;;5063723;28;20441;-70
2021/11/15 07:35:49;;;;;;;7.28;4.75;;;21.90;42.30;;;;;;5064778;28;20426;-70
2021/11/15 07:38:17;;;;;;;7.50;4.17;;;22.00;42.20;;;;;;5065170;28;20379;-70
2021/11/15 07:40:43;;;;;;;6.47;4.20;;;22.00;42.20;;;;;;5065086;28;20386;-74
2021/11/15 07:43:09;;;;;;;5.73;3.90;;;21.90;42.20;;;;;;5065158;28;20388;-74
2021/11/15 07:45:35;;;;;;;4.97;3.80;;;21.90;42.20;;;;;;5065077;28;20385;-73
2021/11/15 07:48:01;;;;;;;6.60;4.38;;;21.90;42.20;;;;;;5065049;28;20400;-74
2021/11/15 07:50:26;;;;;;;4.93;4.05;;;21.90;42.20;;;;;;5064192;28;20856;-74
2021/11/15 07:52:52;;;;;;;6.20;4.00;;;21.90;42.20;;;;;;5065491;28;20383;-74
2021/11/15 07:55:18;;;;;;;5.30;3.80;;;21.90;42.10;;;;;;5065051;28;20868;-71
2021/11/15 07:57:45;;;;;;;6.25;3.80;;;21.90;42.10;;;;;;5063355;28;20407;-74
2021/11/15 08:00:14;;;;;;;5.45;3.65;;;21.80;42.10;;;;;;5063465;28;20562;-74
2021/11/15 08:02:40;;;;;;;7.22;4.00;;;21.80;42.10;;;;;;5065715;28;20441;-73
2021/11/15 08:05:08;;;;;;;6.90;4.05;;;21.80;42.10;;;;;;5063949;28;20445;-73
2021/11/15 08:07:34;;;;;;;4.47;3.20;;;21.80;42.10;;;;;;5064425;28;20392;-71
2021/11/15 08:09:59;;;;;;;6.32;3.80;;;21.90;42.10;;;;;;5064699;28;20418;-71
2021/11/15 08:12:38;;;;;;;4.53;3.43;;;21.80;42.00;;;;;;5064465;28;20427;-70
2021/11/15 08:15:07;;;;;;;4.70;3.22;;;21.90;42.10;;;;;;5064069;28;20446;-74
2021/11/15 08:17:34;;;;;;;4.70;3.45;;;21.90;41.90;;;;;;5064342;28;20527;-73
2021/11/15 08:20:00;;;;;;;4.95;3.10;;;22.00;41.80;;;;;;5065095;28;20659;-73
2021/11/15 08:22:26;;;;;;;4.60;3.40;;;22.00;41.70;;;;;;5063983;28;20435;-74
2021/11/15 08:25:01;;;;;;;5.07;3.42;;;22.00;41.70;;;;;;5064303;28;20869;-72
2021/11/15 08:27:30;;;;;;;5.40;3.40;;;22.10;41.60;;;;;;5063124;28;20746;-75
2021/11/15 08:29:56;;;;;;;4.88;3.30;;;22.10;41.60;;;;;;5063865;28;20810;-75
2021/11/15 08:32:24;;;;;;;5.10;3.10;;;22.10;41.50;;;;;;5063916;28;20411;-75
2021/11/15 08:34:55;;;;;;;3.72;3.00;;;22.10;41.40;;;;;;5064045;28;20777;-70
2021/11/15 08:37:22;;;;;;;4.10;3.10;;;22.10;41.40;;;;;;5062036;28;20388;-76
2021/11/15 08:39:48;;;;;;;4.38;3.05;;;22.10;41.30;;;;;;5061014;28;20399;-75
2021/11/15 08:42:14;;;;;;;4.20;3.00;;;22.20;41.30;;;;;;5062095;28;20395;-75
2021/11/15 08:44:44;;;;;;;4.28;2.88;;;22.20;41.30;;;;;;5062573;28;20388;-74
2021/11/15 08:47:10;;;;;;;3.47;2.70;;;22.20;41.30;;;;;;5061116;28;20400;-71
2021/11/15 08:49:36;;;;;;;4.68;3.03;;;22.20;41.30;;;;;;5060320;28;20400;-70
2021/11/15 08:52:05;;;;;;;3.42;2.80;;;22.20;41.20;;;;;;5062221;28;20746;-74
2021/11/15 08:54:31;;;;;;;4.18;2.83;;;22.10;41.20;;;;;;5061883;28;20537;-70
2021/11/15 08:57:06;;;;;;;4.60;2.90;;;22.10;41.20;;;;;;5063456;28;20476;-71
2021/11/15 08:59:32;;;;;;;4.47;2.53;;;22.20;41.20;;;;;;5062206;28;20392;-70
2021/11/15 09:01:59;;;;;;;4.77;2.73;;;22.20;41.10;;;;;;5063542;28;20391;-69
2021/11/15 09:04:25;;;;;;;4.25;2.60;;;22.20;41.10;;;;;;5063762;28;20396;-70
2021/11/15 09:06:51;;;;;;;4.32;2.83;;;22.20;41.00;;;;;;5064108;28;20399;-70
2021/11/15 09:09:17;;;;;;;4.68;2.92;;;22.20;41.00;;;;;;5062407;28;20388;-70
2021/11/15 09:11:47;;;;;;;8.30;3.10;;;22.30;41.00;;;;;;5062245;28;20396;-70
2021/11/15 09:14:15;;;;;;;7.38;3.22;;;22.20;40.90;;;;;;5063466;28;20435;-71
2021/11/15 09:16:42;;;;;;;4.97;3.00;;;22.20;41.10;;;;;;5063038;28;20420;-70
2021/11/15 09:19:09;;;;;;;5.80;3.10;;;22.20;41.40;;;;;;5062810;28;20386;-70
2021/11/15 09:21:35;;;;;;;5.80;3.03;;;22.10;41.20;;;;;;5063149;28;20403;-70
2021/11/15 09:24:01;;;;;;;6.03;3.10;;;22.00;41.10;;;;;;5062463;28;20400;-73
2021/11/15 09:26:27;;;;;;;6.03;2.90;;;21.90;41.30;;;;;;5061541;28;20466;-70
2021/11/15 09:29:05;;;;;;;6.40;3.10;;;22.00;41.70;;;;;;5062004;28;20464;-70
2021/11/15 09:31:31;;;;;;;6.15;3.17;;;22.00;41.50;;;;;;5059678;28;20761;-70
2021/11/15 09:33:57;;;;;;;4.63;2.88;;;22.00;41.60;;;;;;5061821;28;20407;-71
2021/11/15 09:36:24;;;;;;;5.22;2.80;;;22.00;41.70;;;;;;5061286;28;20913;-69
2021/11/15 09:38:59;;;;;;;5.53;3.30;;;21.90;41.40;;;;;;5062553;28;20392;-71
2021/11/15 09:41:27;;;;;;;4.45;2.90;;;21.90;41.50;;;;;;5062534;28;20395;-70
2021/11/15 09:43:54;;;;;;;4.55;2.78;;;21.90;41.80;;;;;;5061429;28;20710;-70
2021/11/15 09:46:23;;;;;;;4.38;2.63;;;22.00;41.70;;;;;;5062982;28;20426;-72
2021/11/15 09:48:59;;;;;;;6.40;2.97;;;22.00;41.70;;;;;;5062479;28;20396;-71
2021/11/15 09:51:25;;;;;;;5.72;3.22;;;21.90;41.50;;;;;;5062652;28;20837;-71
2021/11/15 09:53:52;;;;;;;5.38;3.33;;;21.90;41.40;;;;;;5063048;28;20880;-72
2021/11/15 09:56:20;;;;;;;5.03;2.80;;;21.90;41.50;;;;;;5063024;28;21471;-76
2021/11/15 09:58:46;;;;;;;5.35;2.70;;;21.90;41.90;;;;;;5062878;28;20384;-71
2021/11/15 10:01:13;;;;;;;4.93;2.88;;;21.90;41.80;;;;;;5062267;28;20392;-71
2021/11/15 10:03:38;;;;;;;4.22;2.80;;;21.90;41.80;;;;;;5060603;28;20392;-70
2021/11/15 10:06:05;;;;;;;3.77;2.83;;;21.90;41.70;;;;;;5062580;28;20776;-71
2021/11/15 10:08:50;;;;;;;4.60;2.70;;;21.90;41.80;;;;;;5062407;28;20463;-69
2021/11/15 10:11:18;;;;;;;4.07;2.70;;;21.90;41.70;;;;;;5061046;28;20868;-70
2021/11/15 10:13:44;;;;;;;5.03;2.70;;;22.00;41.60;;;;;;5062646;28;20383;-70
2021/11/15 10:16:22;;;;;;;6.65;3.20;;;22.00;41.70;;;;;;5062206;28;20408;-70
2021/11/15 10:18:58;;;;;;;6.95;3.38;;;22.10;41.90;;;;;;5061994;28;20384;-71
2021/11/15 10:21:33;;;;;;;9.43;3.85;;;22.20;42.30;;;;;;5062102;28;20383;-69
2021/11/15 10:24:13;;;;;;;8.80;3.20;;;22.30;45.70;;;;;;5062035;28;20762;-69
2021/11/15 10:26:41;;;;;;;8.00;3.60;;;22.40;45.20;;;;;;5062285;28;20436;-69
2021/11/15 10:29:15;;;;;;;8.77;3.08;;;22.40;46.00;;;;;;5062179;28;20790;-69
2021/11/15 10:31:49;;;;;;;5.95;2.83;;;22.50;46.10;;;;;;5062046;28;20388;-68
2021/11/15 10:34:22;;;;;;;8.43;3.35;;;22.50;45.90;;;;;;5062034;28;20391;-69
2021/11/15 10:36:55;;;;;;;8.73;2.85;;;22.50;45.50;;;;;;5061938;28;20466;-70
2021/11/15 10:39:26;;;;;;;10.85;3.00;;;22.60;45.00;;;;;;5061559;28;20719;-68
2021/11/15 10:42:14;;;;;;;8.20;3.30;;;22.50;44.20;;;;;;5062124;28;20535;-70
2021/11/15 10:44:47;;;;;;;5.97;2.97;;;22.50;44.10;;;;;;5067498;28;20959;-69
2021/11/15 10:47:14;;;;;;;6.55;2.90;;;22.50;45.20;;;;;;5065592;28;20387;-68
2021/11/15 10:49:41;;;;;;;5.88;3.13;;;22.50;45.10;;;;;;5066181;28;20418;-70
2021/11/15 10:52:11;;;;;;;7.75;3.03;;;22.50;44.80;;;;;;5066732;28;20865;-69
2021/11/15 10:55:03;;;;;;;9.57;2.88;;;22.50;44.40;;;;;;5081828;28;20410;-71
2021/11/15 10:57:43;;;;;;;12.32;3.45;;;22.50;45.10;;;;;;5064784;28;20399;-68
2021/11/15 11:00:10;;;;;;;10.67;3.43;;;22.50;44.60;;;;;;5066408;28;20387;-69
2021/11/15 11:02:39;;;;;;;10.93;3.67;;;22.60;44.80;;;;;;5066515;28;20387;-68
2021/11/15 11:05:12;;;;;;;11.05;3.88;;;22.60;46.30;;;;;;5065658;28;20471;-69
2021/11/15 11:07:40;;;;;;;10.63;3.43;;;22.60;47.30;;;;;;5066099;28;20888;-68
2021/11/15 11:10:11;;;;;;;7.25;3.72;;;22.70;46.80;;;;;;5065741;28;20566;-71
2021/11/15 11:12:45;;;;;;;11.73;4.05;;;22.70;46.50;;;;;;5065931;28;20395;-68
2021/11/15 11:15:20;;;;;;;8.77;4.43;;;22.70;46.50;;;;;;5065327;28;20880;-70
2021/11/15 11:18:11;;;;;;;7.45;3.80;;;22.70;45.90;;;;;;5065772;28;20942;-68
2021/11/15 11:25:50;;;;;;;7.53;3.88;;;22.50;45.30;;;;;;5065530;28;20971;-70
2021/11/15 11:28:33;;;;;;;6.47;3.92;;;22.60;45.60;;;;;;5064302;28;20407;-70
2021/11/15 11:31:02;;;;;;;10.68;4.80;;;22.50;45.00;;;;;;5065388;28;20407;-70
2021/11/15 11:33:30;;;;;;;9.52;4.80;;;22.50;44.20;;;;;;5065167;28;20927;-69
2021/11/15 11:35:56;;;;;;;10.77;4.32;;;22.50;44.30;;;;;;5065252;28;20470;-71
2021/11/15 11:38:22;;;;;;;9.38;5.40;;;22.50;44.60;;;;;;5065158;28;20387;-74
2021/11/15 11:40:49;;;;;;;9.90;5.38;;;22.50;44.00;;;;;;5064084;28;21008;-70
2021/11/15 11:43:15;;;;;;;9.98;5.32;;;22.50;44.10;;;;;;5063932;28;20420;-73
2021/11/15 11:45:43;;;;;;;10.30;5.47;;;22.40;44.80;;;;;;5065249;28;20380;-73
2021/11/15 11:48:09;;;;;;;9.43;4.75;;;22.40;44.80;;;;;;5063675;28;20408;-71
2021/11/15 11:50:37;;;;;;;9.85;4.72;;;22.40;45.10;;;;;;5063612;28;20396;-70
2021/11/15 11:53:08;;;;;;;22.67;9.15;;;22.40;44.60;;;;;;5079197;28;20387;-69
2021/11/15 11:55:38;;;;;;;63.47;29.38;;;22.50;45.30;;;;;;5063885;28;20419;-70
2021/11/15 11:58:31;;;;;;;79.43;32.60;;;22.50;44.70;;;;;;5064934;28;20794;-70
2021/11/15 12:01:02;;;;;;;30.02;13.20;;;22.60;45.40;;;;;;5064865;28;20396;-70
2021/11/15 12:03:29;;;;;;;26.10;11.77;;;22.70;45.50;;;;;;5065137;28;20462;-73
2021/11/15 12:05:57;;;;;;;29.35;11.23;;;22.70;45.20;;;;;;5065030;28;20482;-72
2021/11/15 12:08:55;;;;;;;31.35;11.93;;;22.70;45.40;;;;;;5065131;28;21277;-72
2021/11/15 12:11:32;;;;;;;29.55;11.63;;;22.70;45.30;;;;;;5064556;28;20876;-72
2021/11/15 12:13:59;;;;;;;25.52;10.13;;;22.80;50.40;;;;;;5063850;28;20387;-70
2021/11/15 12:16:57;;;;;;;29.05;11.43;;;22.80;46.90;;;;;;5064028;28;21090;-68
2021/11/15 12:19:31;;;;;;;25.95;10.10;;;22.90;47.30;;;;;;5062874;28;20904;-70
2021/11/15 12:22:09;;;;;;;25.38;9.93;;;22.90;47.70;;;;;;5063425;28;20471;-72
2021/11/15 12:24:35;;;;;;;24.35;9.45;;;22.80;47.10;;;;;;5064856;28;20912;-70
2021/11/15 12:27:02;;;;;;;23.13;9.18;;;22.80;45.70;;;;;;5064804;28;20387;-69
2021/11/15 12:29:31;;;;;;;16.98;7.80;;;22.80;46.40;;;;;;5064309;28;20384;-74
2021/11/15 12:32:07;;;;;;;18.48;7.57;;;22.80;45.60;;;;;;5064162;28;20379;-69
2021/11/15 12:34:54;;;;;;;15.27;7.45;;;22.80;45.10;;;;;;5064192;28;20392;-70
2021/11/15 12:37:34;;;;;;;14.20;6.85;;;22.80;44.90;;;;;;5063971;28;20490;-69
2021/11/15 12:39:59;;;;;;;14.85;6.93;;;22.80;44.60;;;;;;5063726;28;20383;-70
2021/11/15 12:42:30;;;;;;;12.10;6.22;;;22.80;44.40;;;;;;5064122;28;20856;-69
2021/11/15 12:45:12;;;;;;;12.93;6.30;;;22.90;44.30;;;;;;5063859;28;20396;-69
2021/11/15 12:47:46;;;;;;;13.32;6.13;;;22.90;44.10;;;;;;5063759;28;20438;-69
2021/11/15 12:50:19;;;;;;;16.40;6.57;;;22.90;43.90;;;;;;5063653;28;20419;-69
2021/11/15 12:52:53;;;;;;;10.73;5.73;;;22.90;43.70;;;;;;5063985;28;20395;-69
2021/11/15 12:55:20;;;;;;;10.70;5.60;;;22.90;43.50;;;;;;5062983;28;20447;-69